Hlavní strana
METAR-TAF:

METAR-TAF

Letiště :

Esbjerg, Dánsko

zeměpisná šířka: 55-32N, zeměpisná délka: 008-34E, výška: 30 m

Aktuální stav počasí

Zpráva byla vytvořena před 11 minutami, v 21:20 UTC
Jihovýchodní vítr 8 kt, proměnlivý mezi východojihovýchodním a jižním
Teplota 5°C
Vlhkost vzduchu 87%
Tlak 998 hPa
Viditelnost 10 km a více
slabé dešťové přeháňky

METAR: EKEB 122120Z AUTO 14008KT 110V170 9999 -SHRA BKN017/// 05/03 Q0998

Čas: 22:31 (21:31 UTC)

Předpověď počasí

Zpráva byla vytvořena před 4 hodinami a 9 minutami, v 17:22 UTC
Předpověď platná od 12 v 18 UTC do 12 v 23 UTC
Jihojihovýchodní vítr 10 kt
Viditelnost 10 km a více
Polojasno ve výšce 2500 ft
Dočasný
od 12 v 18 UTC do 12 v 23 UTC
Polojasno ve výšce 2000 ft, Cumulonimbus.
dešťové přeháňky

TAF: EKEB 121722Z 1218/1223 15010KT 9999 SCT025 TEMPO 1218/1223 SHRA SCT020CB

Stav a předpovědi počasí z více než 4 000 letišť (zprávy METAR a TAF).

Červené a žluté tečky na mapě představují dostupné meteorologické stanice.

Když kurzor umístíte na tečku, zobrazí se název stanice.

Pak kliknutím zobrazíte stav a předpověď počasí.

Chcete-li změnit mapu, kliknutím na zelené tlačítko se znaménkem +mapu přiblížíte, kliknutím na zelené tlačítko se znaménkem – mapu oddálíte a kliknutím na zelené šipky přejdete na sousední mapy.


METAR-TAF: